Terminal Aerodrome Forecast
Issued by NWS

Home | Current Version | Previous Version | Text Only | Print | Product List | Glossary On
Versions: 1 2 3 4 5 6 7 8 9 10 11 12 13 14 15 16
000
FTUS45 KLKN 272326
TAFELY
TAF
KELY 272326Z 2800/2824 08010KT P6SM BKN090
     FM280300 VRB06KT P6SM BKN100
     FM280700 18007KT P6SM BKN110
     FM281900 22009KT P6SM VCTS SCT070CB BKN100=

USA.gov is the U.S. government's official web portal to all federal, state and local government web resources and services.